Terminal Aerodrome Forecast
Issued by NWS Sterling, VA

Current Version | Previous Version | Graphics & Text | Print | Product List | Glossary On
Versions: 1 2 3 4 5 6 7 8 9 10 11 12 13 14 15 16 17 18 19 20 21 22 23
000
FTUS41 KLWX 171600 AAB
TAFIAD
TAF AMD
KIAD 171627Z 1716/1818 30011G18KT P6SM SCT050 BKN110
     FM171800 30012KT P6SM VCTS SCT040CB BKN090
     FM172200 29004KT P6SM SCT040 BKN120=

USA.gov is the U.S. government's official web portal to all federal, state and local government web resources and services.